In Rescue
 
Open Full Screen Window  High Contrast Mode
Wind Gusting 00 knots
05
January 22, 2020 5:25 PM CST
Weather Information
Wind Direction
  150 °
Wind Speed
  05 kt (6 mph)
Wind Gust
  00 kt (0 mph)
Altimeter
29.83 in
Visibility
10 SM
Temperature
02° C
36° F
Dewpoint
01° C
34° F
Humidity
93%
1hr Rain Fall
00.00 in.
24hr Rain Fall
00.00 in.
Sky Condition
Overcast @ 1,100 ft
MVFR

METAR KGDB 222325Z AUTO 15005KT 10SM OVC011 02/01 A2983 RMK AO2 T00150007

FAA Disclaimer: The data displayed is for advisory purposes only and is not to be used for flight planning or operations.